Time;durP1;ratioP1;P1;durP2;ratioP2;P2;SDS_P1;SDS_P2;PMS_P1;PMS_P2;Temp;Humidity;BMP_temperature;BMP_pressure;BME280_temperature;BME280_humidity;BME280_pressure;Samples;Min_cycle;Max_cycle;Signal;HPM_P1;HPM_P2
2023/03/08 00:00:31;;;;;;;3.65;1.90;;;0.00;99.90;;;;;;5053510;28;20373;-72
2023/03/08 00:02:57;;;;;;;8.68;2.33;;;-0.10;99.90;;;;;;5062169;28;20036;-72
2023/03/08 00:05:23;;;;;;;7.50;2.67;;;-0.10;99.90;;;;;;5070418;28;20124;-72
2023/03/08 00:07:52;;;;;;;6.90;2.45;;;-0.10;99.90;;;;;;5071377;28;20044;-73
2023/03/08 00:10:18;;;;;;;7.10;2.60;;;0.00;99.90;;;;;;5062531;28;20044;-72
2023/03/08 00:12:44;;;;;;;9.32;2.65;;;0.00;99.90;;;;;;5059755;28;20079;-73
2023/03/08 00:15:10;;;;;;;5.88;2.80;;;0.10;99.90;;;;;;5070212;28;20094;-72
2023/03/08 00:17:37;;;;;;;8.38;3.10;;;-0.10;99.90;;;;;;5072213;28;20052;-72
2023/03/08 00:20:04;;;;;;;8.07;2.70;;;0.00;99.90;;;;;;5069898;28;20033;-72
2023/03/08 00:22:35;;;;;;;5.93;2.72;;;-0.10;99.90;;;;;;5069025;28;20119;-73
2023/03/08 00:25:01;;;;;;;5.05;2.28;;;0.00;99.90;;;;;;5073258;28;20045;-73
2023/03/08 00:27:27;;;;;;;6.28;2.00;;;0.00;99.90;;;;;;5072682;28;20043;-73
2023/03/08 00:29:53;;;;;;;3.75;1.67;;;-0.10;99.90;;;;;;5061307;28;20033;-72
2023/03/08 00:32:18;;;;;;;7.97;2.25;;;-0.10;99.90;;;;;;5071148;28;20044;-73
2023/03/08 00:34:45;;;;;;;4.53;1.83;;;-0.10;99.90;;;;;;5074989;28;20096;-72
2023/03/08 00:37:12;;;;;;;5.70;1.77;;;-0.20;99.90;;;;;;5076506;28;20405;-72
2023/03/08 00:39:38;;;;;;;6.03;2.00;;;-0.20;99.90;;;;;;5070906;28;20032;-73
2023/03/08 00:42:04;;;;;;;4.65;2.10;;;-0.30;99.90;;;;;;5047037;28;20048;-72
2023/03/08 00:44:30;;;;;;;5.93;2.50;;;-0.30;99.90;;;;;;5070626;28;20040;-72
2023/03/08 00:46:55;;;;;;;5.82;2.60;;;-0.40;99.90;;;;;;5071257;28;20504;-72
2023/03/08 00:49:21;;;;;;;6.78;2.92;;;-0.40;99.90;;;;;;5071433;28;20059;-72
2023/03/08 00:51:47;;;;;;;8.40;2.30;;;-0.50;99.90;;;;;;5066943;28;20497;-72
2023/03/08 00:54:13;;;;;;;3.88;2.00;;;-0.50;99.90;;;;;;5072453;28;20047;-72
2023/03/08 00:56:42;;;;;;;4.72;2.20;;;-0.60;99.90;;;;;;5059109;28;20068;-71
2023/03/08 00:59:07;;;;;;;8.73;2.58;;;-0.60;99.90;;;;;;5060354;28;20498;-72
2023/03/08 01:01:33;;;;;;;5.65;2.30;;;-0.60;99.90;;;;;;5058416;28;20131;-72
2023/03/08 01:04:00;;;;;;;8.43;2.35;;;-0.60;99.90;;;;;;5068102;28;20449;-71
2023/03/08 01:06:26;;;;;;;8.45;1.98;;;-0.60;99.90;;;;;;5070798;28;20044;-72
2023/03/08 01:08:52;;;;;;;7.95;2.05;;;-0.70;99.90;;;;;;5069177;28;20500;-72
2023/03/08 01:11:23;;;;;;;6.00;1.83;;;-0.70;99.90;;;;;;5055240;28;20156;-72
2023/03/08 01:13:50;;;;;;;8.27;1.77;;;-0.70;99.90;;;;;;5069078;28;20125;-71
2023/03/08 01:16:25;;;;;;;6.72;2.30;;;-0.70;99.90;;;;;;5067731;28;20047;-72
2023/03/08 01:18:52;;;;;;;6.22;1.90;;;-0.70;99.90;;;;;;5056904;28;20425;-72
2023/03/08 01:21:17;;;;;;;9.63;2.20;;;-0.70;99.90;;;;;;5071749;28;20048;-71
2023/03/08 01:23:43;;;;;;;4.57;1.90;;;-0.70;99.90;;;;;;5065167;28;20119;-72
2023/03/08 01:26:18;;;;;;;8.20;2.45;;;-0.70;99.90;;;;;;5069402;28;20117;-72
2023/03/08 01:28:44;;;;;;;5.53;2.10;;;-0.80;99.90;;;;;;5069042;28;20448;-72
2023/03/08 01:31:13;;;;;;;6.75;2.17;;;-0.80;99.90;;;;;;5070667;28;20068;-72
2023/03/08 01:33:40;;;;;;;8.13;2.53;;;-0.40;99.90;;;;;;5066733;28;20040;-72
2023/03/08 01:36:09;;;;;;;6.32;2.55;;;-0.80;99.90;;;;;;5066930;28;20035;-72
2023/03/08 01:38:35;;;;;;;5.38;2.20;;;-0.90;99.90;;;;;;5060083;28;20476;-72
2023/03/08 01:41:03;;;;;;;6.60;2.67;;;-0.90;99.90;;;;;;5061193;28;20046;-72
2023/03/08 01:43:34;;;;;;;3.30;1.73;;;-0.90;99.90;;;;;;5066535;28;20059;-72
2023/03/08 01:46:20;;;;;;;5.07;1.80;;;-0.90;99.90;;;;;;5060825;28;20044;-72
2023/03/08 01:48:59;;;;;;;5.00;2.33;;;-0.90;99.90;;;;;;5067460;28;20072;-72
2023/03/08 01:51:29;;;;;;;5.45;2.30;;;-0.90;99.90;;;;;;5059640;28;20157;-72
2023/03/08 01:53:56;;;;;;;6.95;2.13;;;-1.00;99.90;;;;;;5064697;28;20056;-72
2023/03/08 01:56:23;;;;;;;6.88;2.40;;;-1.00;99.90;;;;;;5066671;28;20486;-72
2023/03/08 01:58:50;;;;;;;5.80;2.00;;;-1.00;99.90;;;;;;5061590;28;20047;-72
2023/03/08 02:01:18;;;;;;;9.38;2.10;;;-1.10;99.90;;;;;;5070907;28;20098;-72
2023/03/08 02:03:45;;;;;;;6.18;1.90;;;-1.00;99.90;;;;;;5071437;28;20439;-72
2023/03/08 02:06:13;;;;;;;9.25;2.17;;;-1.00;99.90;;;;;;5067063;28;20103;-72
2023/03/08 02:08:38;;;;;;;8.57;2.45;;;-1.10;99.90;;;;;;5076947;28;20068;-72
2023/03/08 02:11:04;;;;;;;5.43;1.83;;;-1.10;99.90;;;;;;5073005;28;20048;-72
2023/03/08 02:13:30;;;;;;;6.97;1.92;;;-1.10;99.90;;;;;;5070039;28;20036;-72
2023/03/08 02:15:57;;;;;;;8.80;2.90;;;-1.10;99.90;;;;;;5071636;28;20091;-72
2023/03/08 02:18:23;;;;;;;6.60;2.47;;;-1.10;99.90;;;;;;5074467;28;20063;-72
2023/03/08 02:20:48;;;;;;;3.85;1.75;;;-1.10;99.90;;;;;;5074986;28;20052;-72
2023/03/08 02:23:17;;;;;;;7.35;1.80;;;-1.10;99.90;;;;;;5071335;28;20055;-72
2023/03/08 02:25:59;;;;;;;6.78;1.85;;;-1.10;99.90;;;;;;5074831;28;20401;-72
2023/03/08 02:28:26;;;;;;;8.05;1.42;;;-1.10;99.90;;;;;;5069729;28;20072;-72
2023/03/08 02:30:53;;;;;;;5.40;1.60;;;-0.90;99.90;;;;;;5072211;28;20047;-72
2023/03/08 02:33:18;;;;;;;8.05;2.00;;;-1.00;99.90;;;;;;5071229;28;20045;-72
2023/03/08 02:35:44;;;;;;;7.05;1.40;;;-1.00;99.90;;;;;;5069198;28;20516;-72
2023/03/08 02:38:12;;;;;;;7.35;1.90;;;-0.90;99.90;;;;;;5070314;28;20028;-72
2023/03/08 02:40:39;;;;;;;5.37;1.60;;;-0.80;99.90;;;;;;5066175;28;20097;-71
2023/03/08 02:43:05;;;;;;;4.68;1.73;;;-1.00;99.90;;;;;;5059108;28;20051;-71
2023/03/08 02:45:32;;;;;;;3.00;1.40;;;-1.00;99.90;;;;;;5070722;28;20044;-72
2023/03/08 02:47:59;;;;;;;8.13;2.08;;;-1.00;99.90;;;;;;5069209;28;20045;-71
2023/03/08 02:50:25;;;;;;;2.90;1.30;;;-1.00;99.90;;;;;;5070167;28;20053;-71
2023/03/08 02:52:50;;;;;;;8.75;1.60;;;-1.00;99.90;;;;;;5065374;28;20128;-71
2023/03/08 02:55:16;;;;;;;4.95;1.70;;;-1.00;99.90;;;;;;5062607;28;20129;-72
2023/03/08 02:57:41;;;;;;;9.10;1.83;;;-1.10;99.90;;;;;;5069227;28;20051;-72
2023/03/08 03:00:08;;;;;;;5.32;1.52;;;-1.00;99.90;;;;;;5064835;28;20044;-72
2023/03/08 03:02:33;;;;;;;5.30;1.30;;;-1.00;99.90;;;;;;5074438;28;20045;-72
2023/03/08 03:05:02;;;;;;;5.40;1.60;;;-1.00;99.90;;;;;;5072480;28;20043;-73
2023/03/08 03:07:28;;;;;;;7.70;1.58;;;-1.00;99.90;;;;;;5072128;28;20036;-72
2023/03/08 03:09:53;;;;;;;4.05;1.58;;;-0.90;99.90;;;;;;5073926;28;20391;-72
2023/03/08 03:12:19;;;;;;;5.82;1.70;;;-0.90;99.90;;;;;;5071206;28;20079;-72
2023/03/08 03:14:44;;;;;;;4.30;1.80;;;-1.00;99.90;;;;;;5064331;28;20117;-72
2023/03/08 03:17:10;;;;;;;5.80;2.00;;;-0.90;99.90;;;;;;5067849;28;20141;-72
2023/03/08 03:19:37;;;;;;;9.18;2.15;;;-0.90;99.90;;;;;;5071924;28;20040;-72
2023/03/08 03:22:03;;;;;;;9.07;1.75;;;-1.00;99.90;;;;;;5070816;28;20071;-72
2023/03/08 03:24:28;;;;;;;6.75;1.50;;;-1.00;99.90;;;;;;5065064;28;20040;-72
2023/03/08 03:26:54;;;;;;;5.55;1.80;;;-1.00;99.90;;;;;;5065407;28;20072;-72
2023/03/08 03:29:20;;;;;;;6.55;2.40;;;-1.00;99.90;;;;;;5066055;28;20033;-72
2023/03/08 03:31:47;;;;;;;4.40;1.77;;;-1.00;99.90;;;;;;5064505;28;20047;-72
2023/03/08 03:34:13;;;;;;;7.22;1.80;;;-1.00;99.90;;;;;;5066082;28;20048;-72
2023/03/08 03:36:39;;;;;;;8.38;2.28;;;-0.90;99.90;;;;;;5070025;28;20045;-72
2023/03/08 03:39:04;;;;;;;4.53;1.90;;;-1.00;99.90;;;;;;5068327;28;20040;-72
2023/03/08 03:41:30;;;;;;;4.28;1.80;;;-1.00;99.90;;;;;;5068117;28;20108;-71
2023/03/08 03:43:57;;;;;;;7.45;1.98;;;-1.00;99.90;;;;;;5070370;28;20047;-72
2023/03/08 03:46:23;;;;;;;15.45;1.52;;;-1.00;99.90;;;;;;5067193;28;20108;-72
2023/03/08 03:48:49;;;;;;;4.30;1.83;;;-1.10;99.90;;;;;;5067805;28;20135;-72
2023/03/08 03:51:18;;;;;;;5.68;1.70;;;-1.10;99.90;;;;;;5067550;28;20127;-72
2023/03/08 03:53:44;;;;;;;5.93;1.50;;;-1.10;99.90;;;;;;5067266;28;20089;-72
2023/03/08 03:56:28;;;;;;;6.60;1.65;;;-1.00;99.90;;;;;;5071479;28;20367;-72
2023/03/08 03:58:53;;;;;;;5.35;1.83;;;-1.10;99.90;;;;;;5069514;28;20032;-72
2023/03/08 04:01:23;;;;;;;2.92;1.25;;;-1.10;99.90;;;;;;5069440;28;20442;-72
2023/03/08 04:03:50;;;;;;;10.70;1.50;;;-1.10;99.90;;;;;;5067751;28;20097;-73
2023/03/08 04:06:20;;;;;;;2.53;1.45;;;-1.10;99.90;;;;;;5061181;28;20128;-72
2023/03/08 04:08:46;;;;;;;4.10;1.60;;;-1.10;99.90;;;;;;5063949;28;20048;-72
2023/03/08 04:11:14;;;;;;;8.43;1.98;;;-1.10;99.90;;;;;;5066198;28;20143;-71
2023/03/08 04:13:40;;;;;;;4.85;1.30;;;-1.10;99.90;;;;;;5068924;28;20032;-74
2023/03/08 04:16:10;;;;;;;6.32;1.90;;;-1.10;99.90;;;;;;5072611;28;20039;-72
2023/03/08 04:18:36;;;;;;;8.38;1.75;;;-1.20;99.90;;;;;;5070562;28;20481;-72
2023/03/08 04:21:02;;;;;;;4.05;1.48;;;-1.20;99.90;;;;;;5073816;28;20071;-72
2023/03/08 04:23:28;;;;;;;3.33;1.50;;;-1.10;99.90;;;;;;5069882;28;20048;-72
2023/03/08 04:25:53;;;;;;;4.55;1.30;;;-1.20;99.90;;;;;;5067825;28;20076;-72
2023/03/08 04:28:19;;;;;;;3.38;1.40;;;-1.20;99.90;;;;;;5060176;28;20121;-71
2023/03/08 04:30:45;;;;;;;6.72;1.70;;;-1.20;99.90;;;;;;5069986;28;20047;-71
2023/03/08 04:33:10;;;;;;;9.55;1.83;;;-1.20;99.90;;;;;;5067488;28;20044;-71
2023/03/08 04:35:36;;;;;;;5.25;1.50;;;-1.20;99.90;;;;;;5048692;28;20052;-71
2023/03/08 04:38:01;;;;;;;12.50;1.50;;;-1.20;99.90;;;;;;5071668;28;20047;-71
2023/03/08 04:40:27;;;;;;;4.53;1.40;;;-1.20;99.90;;;;;;5065319;28;20044;-72
2023/03/08 04:42:53;;;;;;;3.72;1.52;;;-1.20;99.90;;;;;;5071790;28;20054;-71
2023/03/08 04:45:18;;;;;;;9.15;1.33;;;-1.20;99.90;;;;;;5068405;28;20480;-72
2023/03/08 04:47:44;;;;;;;5.63;1.48;;;-1.20;99.90;;;;;;5063922;28;20041;-71
2023/03/08 04:50:10;;;;;;;6.40;2.60;;;-1.20;99.90;;;;;;5072582;28;20467;-72
2023/03/08 04:52:36;;;;;;;3.25;1.50;;;-1.20;99.90;;;;;;5074439;28;20402;-71
2023/03/08 04:55:01;;;;;;;2.15;1.17;;;-1.20;99.90;;;;;;5076210;28;20044;-72
2023/03/08 04:57:27;;;;;;;3.95;1.23;;;-1.20;99.90;;;;;;5060255;28;20049;-71
2023/03/08 04:59:53;;;;;;;3.67;1.20;;;-1.20;99.90;;;;;;5073558;28;20433;-71
2023/03/08 05:02:20;;;;;;;10.35;1.83;;;0.00;99.90;;;;;;5071794;28;20484;-72
2023/03/08 05:04:45;;;;;;;7.15;1.33;;;-0.80;99.90;;;;;;5072755;28;20052;-73
2023/03/08 05:07:11;;;;;;;6.22;1.60;;;-1.10;99.90;;;;;;5072240;28;20048;-73
2023/03/08 05:09:37;;;;;;;5.82;1.70;;;-1.10;99.90;;;;;;5072558;28;20040;-71
2023/03/08 05:12:03;;;;;;;4.10;1.38;;;-1.10;99.90;;;;;;5069140;28;20037;-71
2023/03/08 05:14:28;;;;;;;3.80;1.63;;;-1.10;99.90;;;;;;5059785;28;20178;-70
2023/03/08 05:16:56;;;;;;;3.80;1.15;;;-1.10;99.90;;;;;;5068608;28;20492;-71
2023/03/08 05:19:22;;;;;;;7.27;1.50;;;-1.10;99.90;;;;;;5073640;28;20090;-71
2023/03/08 05:21:47;;;;;;;3.17;1.20;;;-1.10;99.90;;;;;;5072261;28;20048;-72
2023/03/08 05:24:13;;;;;;;2.90;1.35;;;-1.00;99.90;;;;;;5068236;28;20123;-72
2023/03/08 05:26:39;;;;;;;9.48;1.63;;;-1.00;99.90;;;;;;5069074;28;20124;-72
2023/03/08 05:29:05;;;;;;;3.20;1.45;;;-1.00;99.90;;;;;;5069995;28;20390;-72
2023/03/08 05:31:32;;;;;;;3.97;1.65;;;-1.00;99.90;;;;;;5068757;28;20045;-72
2023/03/08 05:33:58;;;;;;;2.83;1.30;;;-1.00;99.90;;;;;;5071022;28;20079;-72
2023/03/08 05:36:23;;;;;;;4.22;1.70;;;-1.00;99.90;;;;;;5069207;28;20094;-72
2023/03/08 05:38:55;;;;;;;6.57;2.88;;;-1.00;99.90;;;;;;5070285;28;20044;-72
2023/03/08 05:41:21;;;;;;;10.52;2.30;;;-1.00;99.90;;;;;;5071161;28;20048;-72
2023/03/08 05:43:46;;;;;;;7.25;1.70;;;-1.10;99.90;;;;;;5070383;28;20074;-72
2023/03/08 05:46:16;;;;;;;10.20;1.40;;;-1.10;99.90;;;;;;5069022;28;20076;-72
2023/03/08 05:48:42;;;;;;;3.63;1.50;;;-1.10;99.90;;;;;;5068840;28;20068;-72
2023/03/08 05:51:14;;;;;;;3.20;1.33;;;-1.00;99.90;;;;;;5068449;28;20041;-72
2023/03/08 05:53:41;;;;;;;6.95;1.77;;;-1.00;99.90;;;;;;5061860;28;20641;-72
2023/03/08 05:56:10;;;;;;;4.20;1.33;;;-1.00;99.90;;;;;;5074301;28;20108;-72
2023/03/08 05:58:37;;;;;;;9.00;1.80;;;-1.00;99.90;;;;;;5071180;28;20486;-72
2023/03/08 06:01:20;;;;;;;5.05;1.48;;;-1.00;99.90;;;;;;5062158;28;20045;-73
2023/03/08 06:03:48;;;;;;;8.80;1.70;;;-1.00;99.90;;;;;;5074375;28;20081;-72
2023/03/08 06:06:14;;;;;;;3.65;1.75;;;-1.00;99.90;;;;;;5070185;28;20049;-72
2023/03/08 06:08:41;;;;;;;7.45;1.80;;;-1.00;99.90;;;;;;5067909;28;20496;-72
2023/03/08 06:11:07;;;;;;;4.70;1.92;;;-1.00;99.90;;;;;;5074807;28;20036;-72
2023/03/08 06:13:33;;;;;;;5.32;1.50;;;-1.00;99.90;;;;;;5069719;28;20064;-72
2023/03/08 06:15:59;;;;;;;3.72;1.52;;;-0.90;99.90;;;;;;5065634;28;20522;-72
2023/03/08 06:18:26;;;;;;;3.60;1.75;;;-1.00;99.90;;;;;;5071147;28;20516;-71
2023/03/08 06:20:56;;;;;;;5.55;1.80;;;-1.00;99.90;;;;;;5073204;28;20039;-72
2023/03/08 06:23:22;;;;;;;5.20;1.60;;;-1.10;99.90;;;;;;5069432;28;20044;-72
2023/03/08 06:25:48;;;;;;;5.43;1.80;;;-1.10;99.90;;;;;;5073995;28;20173;-72
2023/03/08 06:28:13;;;;;;;5.85;1.88;;;-1.10;99.90;;;;;;5070278;28;20083;-72
2023/03/08 06:30:39;;;;;;;8.38;2.45;;;-1.10;99.90;;;;;;5073118;28;20370;-72
2023/03/08 06:33:04;;;;;;;2.22;1.40;;;-1.10;99.90;;;;;;5064218;28;20366;-72
2023/03/08 06:35:30;;;;;;;6.10;1.50;;;-1.10;99.90;;;;;;5066763;28;20048;-72
2023/03/08 06:37:56;;;;;;;4.38;1.67;;;-1.00;99.90;;;;;;5069260;28;20052;-72
2023/03/08 06:40:21;;;;;;;6.28;1.90;;;-1.00;99.90;;;;;;5052256;28;20393;-72
2023/03/08 06:42:47;;;;;;;6.97;1.85;;;-1.00;99.90;;;;;;5060223;28;20386;-72
2023/03/08 06:45:12;;;;;;;5.15;1.75;;;-1.00;99.90;;;;;;5064185;28;20080;-72
2023/03/08 06:47:38;;;;;;;6.60;1.58;;;-0.90;99.90;;;;;;5068253;28;20482;-72
2023/03/08 06:50:04;;;;;;;7.70;1.75;;;-0.90;99.90;;;;;;5069217;28;20053;-72
2023/03/08 06:52:36;;;;;;;5.70;1.83;;;-0.90;99.90;;;;;;5074637;28;20464;-72
2023/03/08 06:55:03;;;;;;;5.00;1.77;;;-0.80;99.90;;;;;;5068984;28;20040;-72
2023/03/08 06:57:29;;;;;;;8.77;1.90;;;-0.70;99.90;;;;;;5063307;28;20043;-72
2023/03/08 06:59:54;;;;;;;4.45;1.95;;;-0.80;99.90;;;;;;5058651;28;20044;-73
2023/03/08 07:02:20;;;;;;;7.97;2.15;;;-0.70;99.90;;;;;;5064708;28;20098;-72
2023/03/08 07:04:46;;;;;;;6.30;1.70;;;-0.70;99.90;;;;;;5068595;28;20044;-72
2023/03/08 07:07:11;;;;;;;7.93;2.25;;;-0.60;99.90;;;;;;5069598;28;20123;-71
2023/03/08 07:09:37;;;;;;;9.32;2.08;;;-0.50;99.90;;;;;;5064527;28;20155;-71
2023/03/08 07:12:03;;;;;;;6.70;2.05;;;-0.50;99.90;;;;;;5069617;28;20440;-72
2023/03/08 07:14:28;;;;;;;5.82;2.53;;;-0.40;99.90;;;;;;5065219;28;20032;-72
2023/03/08 07:16:54;;;;;;;5.90;2.13;;;-0.40;99.90;;;;;;5072695;28;20086;-72
2023/03/08 07:19:20;;;;;;;4.50;2.00;;;-0.30;99.90;;;;;;5067259;28;20460;-72
2023/03/08 07:21:45;;;;;;;6.82;2.28;;;-0.30;99.90;;;;;;5072677;28;20417;-72
2023/03/08 07:24:11;;;;;;;6.07;2.55;;;-0.20;99.90;;;;;;5073424;28;20046;-72
2023/03/08 07:26:37;;;;;;;6.28;2.53;;;-0.20;99.90;;;;;;5070692;28;20115;-72
2023/03/08 07:29:06;;;;;;;5.82;2.72;;;-0.10;99.90;;;;;;5064011;28;20037;-72
2023/03/08 07:31:35;;;;;;;5.70;3.17;;;-0.10;99.90;;;;;;5064552;28;20405;-72
2023/03/08 07:34:04;;;;;;;5.68;2.95;;;0.00;99.90;;;;;;5073819;28;20080;-72
2023/03/08 07:36:29;;;;;;;8.02;3.08;;;0.00;99.90;;;;;;5055018;28;20040;-72
2023/03/08 07:38:55;;;;;;;8.68;3.67;;;0.00;99.90;;;;;;5057551;28;20797;-72
2023/03/08 07:41:21;;;;;;;8.30;4.03;;;0.10;99.90;;;;;;5053760;28;20048;-72
2023/03/08 07:43:46;;;;;;;8.13;4.07;;;0.10;99.90;;;;;;5054380;28;20417;-70
2023/03/08 07:46:13;;;;;;;9.57;4.20;;;0.20;99.90;;;;;;5062440;28;20482;-71
2023/03/08 07:48:38;;;;;;;11.77;4.22;;;0.20;99.90;;;;;;5074221;28;20037;-72
2023/03/08 07:51:07;;;;;;;9.27;3.92;;;0.30;99.90;;;;;;5072000;28;20587;-72
2023/03/08 07:53:34;;;;;;;6.03;3.47;;;0.40;99.90;;;;;;5071855;28;20048;-72
2023/03/08 07:56:00;;;;;;;7.35;3.80;;;0.50;99.90;;;;;;5063785;28;20036;-72
2023/03/08 07:58:26;;;;;;;7.55;4.10;;;0.50;99.90;;;;;;5053566;28;20045;-72
2023/03/08 08:00:52;;;;;;;5.28;3.50;;;0.60;99.90;;;;;;5064869;28;20033;-71
2023/03/08 08:03:18;;;;;;;6.50;3.88;;;0.70;99.90;;;;;;5063175;28;20256;-71
2023/03/08 08:05:44;;;;;;;8.02;3.65;;;0.80;99.90;;;;;;5052666;28;20072;-71
2023/03/08 08:08:12;;;;;;;11.23;3.75;;;0.90;99.90;;;;;;5056069;28;20037;-71
2023/03/08 08:10:38;;;;;;;8.25;3.90;;;0.90;99.90;;;;;;5066510;28;20091;-71
2023/03/08 08:13:04;;;;;;;10.75;3.95;;;1.00;99.90;;;;;;5063261;28;20040;-70
2023/03/08 08:15:30;;;;;;;6.05;4.00;;;1.00;99.90;;;;;;5059822;28;20045;-69
2023/03/08 08:17:55;;;;;;;7.13;4.22;;;1.10;99.90;;;;;;5057327;28;20049;-67
2023/03/08 08:20:21;;;;;;;10.00;4.13;;;1.20;99.90;;;;;;5059524;28;20063;-68
2023/03/08 08:22:50;;;;;;;16.88;4.82;;;1.20;99.90;;;;;;5067333;28;20154;-69
2023/03/08 08:25:16;;;;;;;7.60;4.43;;;1.20;99.90;;;;;;5066912;28;20044;-70
2023/03/08 08:27:42;;;;;;;9.10;4.55;;;1.30;99.90;;;;;;5072405;28;20098;-68
2023/03/08 08:30:08;;;;;;;7.22;4.22;;;1.30;99.90;;;;;;5070977;28;20032;-68
2023/03/08 08:32:34;;;;;;;8.30;4.32;;;1.40;99.90;;;;;;5069776;28;20076;-68
2023/03/08 08:34:59;;;;;;;7.75;4.15;;;1.40;99.90;;;;;;5071668;28;20150;-68
2023/03/08 08:37:25;;;;;;;9.13;4.60;;;1.50;99.90;;;;;;5067568;28;20474;-69
2023/03/08 08:39:51;;;;;;;7.38;3.92;;;1.50;99.90;;;;;;5066532;28;20036;-70
2023/03/08 08:42:16;;;;;;;9.65;4.38;;;1.50;99.90;;;;;;5053382;28;20099;-69
2023/03/08 08:44:42;;;;;;;5.85;4.05;;;1.60;99.90;;;;;;5059040;28;20047;-68
2023/03/08 08:47:08;;;;;;;5.95;3.80;;;1.70;99.90;;;;;;5060212;28;20493;-70
2023/03/08 08:49:34;;;;;;;9.07;4.88;;;1.80;99.90;;;;;;5051966;28;20053;-69
2023/03/08 08:51:59;;;;;;;9.05;3.92;;;1.90;99.90;;;;;;5052523;28;20093;-69
2023/03/08 08:54:25;;;;;;;8.52;3.83;;;2.00;99.90;;;;;;5057638;28;20106;-70
2023/03/08 08:56:52;;;;;;;8.70;3.97;;;2.00;99.90;;;;;;5061548;28;20079;-67
2023/03/08 08:59:17;;;;;;;9.80;4.30;;;2.10;99.90;;;;;;5053752;28;20120;-69
2023/03/08 09:01:43;;;;;;;12.80;3.63;;;2.20;99.90;;;;;;5064238;28;20128;-70
2023/03/08 09:04:12;;;;;;;6.00;4.30;;;2.20;99.90;;;;;;5069983;28;20040;-69
2023/03/08 09:06:38;;;;;;;8.85;3.60;;;2.30;99.90;;;;;;5057251;28;20124;-69
2023/03/08 09:09:04;;;;;;;8.48;3.67;;;2.40;99.90;;;;;;5060800;28;20044;-69
2023/03/08 09:11:31;;;;;;;6.30;3.92;;;2.50;99.90;;;;;;5063121;28;20701;-69
2023/03/08 09:13:57;;;;;;;8.30;3.95;;;2.60;99.90;;;;;;5068750;28;20136;-69
2023/03/08 09:16:28;;;;;;;6.18;3.70;;;2.70;99.90;;;;;;5055481;28;20494;-69
2023/03/08 09:18:56;;;;;;;9.50;3.80;;;2.70;99.90;;;;;;5062543;28;20123;-68
2023/03/08 09:21:22;;;;;;;7.75;4.95;;;2.80;99.90;;;;;;5061588;28;20029;-69
2023/03/08 09:23:48;;;;;;;7.85;4.35;;;2.90;99.90;;;;;;5064375;28;20040;-69
2023/03/08 09:26:14;;;;;;;9.70;4.68;;;3.10;99.90;;;;;;5055670;28;20414;-69
2023/03/08 09:28:39;;;;;;;6.00;4.30;;;2.80;99.90;;;;;;5050498;28;20098;-69
2023/03/08 09:31:10;;;;;;;8.93;4.63;;;2.90;99.90;;;;;;5052892;28;20060;-70
2023/03/08 09:33:38;;;;;;;6.80;3.90;;;3.00;99.90;;;;;;5061705;28;20041;-71
2023/03/08 09:36:04;;;;;;;10.90;4.22;;;3.10;99.90;;;;;;5051843;28;20041;-68
2023/03/08 09:38:29;;;;;;;22.05;4.45;;;3.20;99.90;;;;;;5062431;28;20032;-70
2023/03/08 09:41:09;;;;;;;8.30;4.32;;;3.30;99.90;;;;;;5052087;28;20121;-70
2023/03/08 09:44:09;;;;;;;7.05;3.90;;;3.40;99.90;;;;;;5067182;28;20040;-70
2023/03/08 09:46:41;;;;;;;7.13;3.97;;;3.50;99.90;;;;;;5058738;28;20497;-70
2023/03/08 09:49:14;;;;;;;12.50;3.75;;;3.60;99.90;;;;;;5069324;28;20048;-70
2023/03/08 09:51:43;;;;;;;6.63;3.47;;;3.60;99.90;;;;;;5056527;28;20028;-68
2023/03/08 09:54:15;;;;;;;8.65;3.80;;;3.60;99.90;;;;;;5054039;28;20059;-69
2023/03/08 09:56:52;;;;;;;7.72;3.67;;;3.80;99.90;;;;;;5053215;28;20045;-69
2023/03/08 09:59:32;;;;;;;10.15;3.90;;;3.70;99.90;;;;;;5068988;28;20449;-70
2023/03/08 10:02:37;;;;;;;7.75;3.67;;;3.70;99.90;;;;;;5074362;28;20041;-70
2023/03/08 10:05:21;;;;;;;7.90;4.15;;;3.70;99.90;;;;;;5056739;28;20041;-70
2023/03/08 10:07:52;;;;;;;8.55;3.35;;;3.80;99.90;;;;;;5065606;28;20041;-70
2023/03/08 10:10:41;;;;;;;6.15;3.65;;;3.80;99.90;;;;;;5070512;28;20429;-69
2023/03/08 10:13:28;;;;;;;7.00;3.00;;;4.00;99.90;;;;;;5070561;28;20052;-69
2023/03/08 10:16:20;;;;;;;9.07;4.40;;;4.20;99.90;;;;;;5057646;28;20303;-69
2023/03/08 10:18:51;;;;;;;9.57;4.57;;;4.40;99.90;;;;;;5054304;28;20053;-69
2023/03/08 10:21:20;;;;;;;11.32;4.22;;;4.50;99.90;;;;;;5065671;28;20063;-69
2023/03/08 10:23:51;;;;;;;8.35;4.32;;;4.50;99.90;;;;;;5071340;28;20115;-69
2023/03/08 10:26:18;;;;;;;7.28;3.88;;;4.60;99.90;;;;;;5066612;28;20438;-69
2023/03/08 10:28:44;;;;;;;8.55;3.00;;;4.60;99.90;;;;;;5053245;28;20033;-69
2023/03/08 10:31:28;;;;;;;4.65;2.70;;;4.70;99.90;;;;;;5063972;28;20476;-70
2023/03/08 10:34:10;;;;;;;7.68;3.30;;;4.80;99.90;;;;;;5051144;28;20124;-71
2023/03/08 10:36:47;;;;;;;8.27;3.38;;;4.90;99.90;;;;;;5059334;28;20052;-69
2023/03/08 10:39:13;;;;;;;6.85;4.10;;;5.00;99.90;;;;;;5065890;28;20040;-69
2023/03/08 10:41:51;;;;;;;6.30;3.20;;;5.10;99.90;;;;;;5071291;28;20071;-69
2023/03/08 10:44:41;;;;;;;6.18;3.08;;;5.20;99.90;;;;;;5076451;28;20129;-69
2023/03/08 10:47:39;;;;;;;9.57;2.80;;;5.30;99.90;;;;;;5071831;28;20036;-69
2023/03/08 10:50:13;;;;;;;6.68;3.00;;;5.30;99.90;;;;;;5075936;28;20497;-69
2023/03/08 10:52:39;;;;;;;8.27;2.63;;;5.50;99.90;;;;;;5072417;28;20052;-69
2023/03/08 10:55:08;;;;;;;5.53;2.83;;;5.70;99.90;;;;;;5072218;28;20072;-69
2023/03/08 10:57:33;;;;;;;9.95;2.20;;;5.70;99.90;;;;;;5075036;28;20056;-68
2023/03/08 11:00:33;;;;;;;6.10;2.17;;;5.70;99.90;;;;;;5072794;28;20048;-69
2023/03/08 11:03:17;;;;;;;3.80;2.10;;;5.60;99.90;;;;;;5072298;28;20454;-69
2023/03/08 11:05:54;;;;;;;2.70;1.60;;;5.50;99.90;;;;;;5055585;28;20058;-69
2023/03/08 11:08:38;;;;;;;3.03;1.65;;;5.30;99.90;;;;;;5067916;28;20036;-68
2023/03/08 11:11:12;;;;;;;2.53;1.33;;;5.30;99.90;;;;;;5061134;28;20037;-69
2023/03/08 11:13:40;;;;;;;4.40;1.73;;;5.40;99.90;;;;;;5072688;28;20486;-70
2023/03/08 11:16:30;;;;;;;4.97;1.40;;;5.40;99.90;;;;;;5068559;28;20441;-71
2023/03/08 11:19:05;;;;;;;3.00;1.58;;;5.40;99.90;;;;;;5074078;28;20468;-71
2023/03/08 11:21:37;;;;;;;4.32;1.63;;;5.50;99.90;;;;;;5067963;28;20060;-71
2023/03/08 11:24:08;;;;;;;3.75;1.60;;;5.60;99.90;;;;;;5070317;28;20040;-70
2023/03/08 11:27:02;;;;;;;4.18;2.03;;;5.60;99.90;;;;;;5069048;28;20040;-71
2023/03/08 11:30:12;;;;;;;4.75;1.90;;;5.70;99.90;;;;;;5065109;28;20051;-71
2023/03/08 11:33:12;;;;;;;5.45;2.15;;;5.50;99.90;;;;;;5071210;28;20067;-70
2023/03/08 11:35:55;;;;;;;3.28;1.60;;;5.60;99.90;;;;;;5066126;28;20044;-70
2023/03/08 11:38:26;;;;;;;3.83;1.63;;;5.60;99.90;;;;;;5073301;28;20052;-70
2023/03/08 11:41:13;;;;;;;5.97;1.85;;;5.50;99.90;;;;;;5072649;28;20401;-71
2023/03/08 11:43:47;;;;;;;3.95;1.98;;;5.60;99.90;;;;;;5071172;28;20429;-71
2023/03/08 11:46:20;;;;;;;5.05;2.17;;;5.60;99.90;;;;;;5058339;28;20099;-71
2023/03/08 11:49:13;;;;;;;3.63;1.63;;;5.70;99.90;;;;;;5059649;28;20511;-71
2023/03/08 11:51:51;;;;;;;6.65;2.10;;;5.70;99.90;;;;;;5063816;28;20638;-70
2023/03/08 11:54:41;;;;;;;6.20;1.60;;;5.90;99.90;;;;;;5072385;28;20040;-71
2023/03/08 11:57:11;;;;;;;6.63;1.65;;;6.00;99.90;;;;;;5071781;28;20063;-70
2023/03/08 11:59:45;;;;;;;4.93;1.63;;;5.90;99.90;;;;;;5072206;28;20048;-70
2023/03/08 12:02:25;;;;;;;2.58;1.30;;;5.70;99.90;;;;;;5069999;28;20048;-70
2023/03/08 12:05:11;;;;;;;5.15;1.52;;;5.80;99.90;;;;;;5060480;28;20089;-70
2023/03/08 12:07:48;;;;;;;6.03;1.27;;;5.90;99.90;;;;;;5067860;28;20049;-71
2023/03/08 12:10:32;;;;;;;4.55;1.40;;;6.00;99.90;;;;;;5060743;28;20103;-71
2023/03/08 12:13:16;;;;;;;8.85;1.65;;;6.20;99.90;;;;;;5058433;28;20394;-72
2023/03/08 12:16:12;;;;;;;3.70;1.60;;;6.00;99.90;;;;;;5062717;28;20048;-71
2023/03/08 12:18:56;;;;;;;4.40;2.10;;;6.10;99.90;;;;;;5061403;28;20476;-71
2023/03/08 12:21:46;;;;;;;5.90;1.38;;;6.20;99.90;;;;;;5066713;28;20048;-71
2023/03/08 12:24:30;;;;;;;5.70;1.50;;;6.20;99.90;;;;;;5054425;28;20045;-71
2023/03/08 12:27:35;;;;;;;3.25;1.48;;;6.00;99.90;;;;;;5070158;28;20056;-71
2023/03/08 12:30:09;;;;;;;8.80;1.85;;;6.00;99.90;;;;;;5054732;28;20049;-71
2023/03/08 12:32:37;;;;;;;5.65;1.58;;;5.80;99.90;;;;;;5052292;28;20402;-71
2023/03/08 12:35:21;;;;;;;;;;;5.80;99.90;;;;;;5056953;28;20666;-71
2023/03/08 12:38:25;;;;;;;4.20;1.55;;;5.90;99.90;;;;;;5067358;28;19928;-71
2023/03/08 12:40:55;;;;;;;5.38;1.60;;;5.80;99.90;;;;;;5060379;28;20046;-71
2023/03/08 12:43:20;;;;;;;4.97;1.48;;;5.70;99.90;;;;;;5058984;28;20086;-71
2023/03/08 12:46:09;;;;;;;3.45;1.70;;;5.80;99.90;;;;;;5052907;28;20044;-71
2023/03/08 12:48:44;;;;;;;8.52;1.70;;;5.80;99.90;;;;;;5052549;28;20506;-71
2023/03/08 12:51:13;;;;;;;4.90;1.58;;;5.70;99.90;;;;;;5053830;28;20049;-71
2023/03/08 12:53:47;;;;;;;3.03;1.23;;;5.70;99.90;;;;;;5068042;28;20162;-71
2023/03/08 12:56:36;;;;;;;2.92;1.55;;;5.70;99.90;;;;;;5068926;28;20040;-71
2023/03/08 12:59:24;;;;;;;8.27;1.70;;;5.70;99.90;;;;;;5052800;28;20040;-71
2023/03/08 13:01:56;;;;;;;5.57;1.92;;;5.60;99.90;;;;;;5060014;28;20393;-71
2023/03/08 13:04:39;;;;;;;3.53;1.30;;;5.50;99.90;;;;;;5065868;28;20051;-71